Time;durP1;ratioP1;P1;durP2;ratioP2;P2;SDS_P1;SDS_P2;PMS_P1;PMS_P2;Temp;Humidity;BMP_temperature;BMP_pressure;BME280_temperature;BME280_humidity;BME280_pressure;Samples;Min_cycle;Max_cycle;Signal;HPM_P1;HPM_P2
2022/06/25 00:00:14;;;;;;;7.10;6.35;;;;;;;19.28;67.66;100344.41;682770;29;907;-76
2022/06/25 00:00:35;;;;;;;7.05;6.45;;;;;;;19.26;67.58;100340.03;685110;28;812;-75
2022/06/25 00:00:55;;;;;;;7.45;6.75;;;;;;;19.29;67.62;100347.91;683956;28;1359;-76
2022/06/25 00:01:17;;;;;;;7.72;6.88;;;;;;;19.26;67.62;100345.31;680016;29;1047;-75
2022/06/25 00:01:38;;;;;;;7.70;6.90;;;;;;;19.23;67.66;100337.44;679230;29;943;-75
2022/06/25 00:01:58;;;;;;;7.30;6.30;;;;;;;19.33;67.63;100362.84;679969;29;1130;-76
2022/06/25 00:02:19;;;;;;;7.20;6.50;;;;;;;19.26;67.51;100340.03;682414;29;1280;-75
2022/06/25 00:02:39;;;;;;;7.10;6.38;;;;;;;19.26;67.91;100354.16;682032;29;1578;-75
2022/06/25 00:03:20;;;;;;;7.28;6.57;;;;;;;19.31;67.72;100349.66;681360;29;1071;-75
2022/06/25 00:03:42;;;;;;;6.95;6.25;;;;;;;19.25;67.86;100339.16;681600;29;1244;-75
2022/06/25 00:04:03;;;;;;;7.10;6.30;;;;;;;19.22;67.94;100338.31;680180;29;1255;-75
2022/06/25 00:05:44;;;;;;;8.13;6.93;;;;;;;19.23;67.73;100340.09;685162;28;1249;-75
2022/06/25 00:06:06;;;;;;;7.45;6.75;;;;;;;19.29;67.80;100347.91;687872;28;991;-75
2022/06/25 00:06:26;;;;;;;7.80;7.00;;;;;;;19.20;67.65;100341.00;690526;28;1018;-76
2022/06/25 00:06:47;;;;;;;7.63;6.95;;;;;;;19.20;67.59;100335.72;685344;28;1085;-76
2022/06/25 00:07:08;;;;;;;7.60;6.90;;;;;;;19.21;67.84;100348.03;679933;29;1253;-75
2022/06/25 00:07:29;;;;;;;7.22;6.50;;;;;;;19.20;67.71;100345.41;677163;29;1910;-75
2022/06/25 00:07:50;;;;;;;7.57;6.77;;;;;;;19.23;67.62;100351.53;679904;29;1110;-76
2022/06/25 00:08:10;;;;;;;7.60;6.80;;;;;;;19.19;67.67;100344.56;682589;29;1064;-76
2022/06/25 00:08:33;;;;;;;7.60;6.90;;;;;;;19.22;67.70;100348.91;685208;28;1530;-75
2022/06/25 00:08:54;;;;;;;8.27;6.65;;;;;;;19.21;67.81;100347.16;684676;28;1559;-75
2022/06/25 00:09:15;;;;;;;8.30;6.80;;;;;;;19.18;67.81;100345.47;687965;28;1078;-75
2022/06/25 00:09:36;;;;;;;7.40;6.67;;;;;;;19.18;67.82;100348.09;682067;29;1265;-76
2022/06/25 00:09:56;;;;;;;7.30;6.70;;;;;;;19.15;67.81;100343.72;681941;29;1443;-75
2022/06/25 00:10:17;;;;;;;7.10;6.50;;;;;;;19.21;67.72;100353.34;680037;29;1151;-75
2022/06/25 00:10:38;;;;;;;7.00;6.30;;;;;;;19.15;67.74;100348.13;679753;29;1785;-76
2022/06/25 00:10:59;;;;;;;7.00;6.30;;;;;;;19.17;67.67;100351.63;682604;29;1444;-76
2022/06/25 00:12:39;;;;;;;6.90;6.30;;;;;;;19.13;67.78;100345.50;683856;28;1550;-76
2022/06/25 00:12:59;;;;;;;6.80;6.20;;;;;;;19.14;67.87;100349.03;685707;28;1162;-76
2022/06/25 00:13:21;;;;;;;7.22;6.55;;;;;;;19.17;67.92;100352.50;679849;29;1906;-76
2022/06/25 00:13:42;;;;;;;7.60;6.90;;;;;;;19.14;67.65;100344.63;682474;28;1390;-76
2022/06/25 00:14:06;;;;;;;7.60;6.90;;;;;;;19.24;67.61;100360.34;687806;28;1124;-76
2022/06/25 00:14:27;;;;;;;7.13;6.43;;;;;;;19.24;67.95;100360.34;684679;28;2097;-75
2022/06/25 00:14:47;;;;;;;7.05;6.35;;;;;;;19.17;67.89;100347.22;680307;28;1057;-75
2022/06/25 00:15:09;;;;;;;7.13;6.43;;;;;;;19.17;67.85;100344.56;680336;29;1296;-75
2022/06/25 00:15:29;;;;;;;6.97;6.38;;;;;;;19.19;67.37;100347.19;679978;29;1523;-76
2022/06/25 00:15:50;;;;;;;6.90;6.30;;;;;;;19.21;67.77;100355.09;684219;28;1149;-75
2022/06/25 00:16:11;;;;;;;6.70;6.10;;;;;;;19.22;67.60;100351.53;679845;29;1232;-75
2022/06/25 00:16:32;;;;;;;6.70;6.10;;;;;;;19.23;67.64;100362.13;680208;29;1889;-76
2022/06/25 00:16:53;;;;;;;6.57;6.00;;;;;;;19.22;67.60;100354.19;685219;28;1112;-76
2022/06/25 00:17:13;;;;;;;6.27;5.77;;;;;;;19.25;67.77;100357.66;685311;28;1089;-76
2022/06/25 00:17:34;;;;;;;6.53;5.93;;;;;;;19.23;67.67;100348.03;684848;28;1056;-76
2022/06/25 00:17:55;;;;;;;6.53;5.93;;;;;;;19.26;67.65;100359.44;686630;28;1127;-75
2022/06/25 00:18:16;;;;;;;7.07;6.38;;;;;;;19.25;67.55;100343.59;680012;29;975;-76
2022/06/25 00:18:36;;;;;;;6.80;6.20;;;;;;;19.26;67.68;100356.78;679716;29;800;-76
2022/06/25 00:18:57;;;;;;;7.10;6.40;;;;;;;19.27;67.71;100347.06;679931;29;1114;-76
2022/06/25 00:19:18;;;;;;;6.95;6.30;;;;;;;19.26;67.61;100347.97;682688;29;1378;-75
2022/06/25 00:19:39;;;;;;;6.90;6.20;;;;;;;19.27;67.63;100352.38;684355;28;1950;-75
2022/06/25 00:20:00;;;;;;;6.45;5.85;;;;;;;19.25;67.35;100343.59;684740;28;1417;-75
2022/06/25 00:20:21;;;;;;;6.65;6.03;;;;;;;19.34;67.32;100364.59;682294;29;970;-76
2022/06/25 00:20:42;;;;;;;6.60;6.00;;;;;;;19.25;67.31;100344.44;679302;29;1295;-76
2022/06/25 00:21:03;;;;;;;6.60;6.00;;;;;;;19.24;67.23;100342.69;682423;29;1214;-76
2022/06/25 00:21:23;;;;;;;6.22;5.70;;;;;;;19.28;67.20;100344.41;679237;29;1552;-75
2022/06/25 00:21:44;;;;;;;6.25;5.70;;;;;;;19.28;67.28;100348.81;677261;29;1198;-76
2022/06/25 00:22:05;;;;;;;6.30;5.70;;;;;;;19.26;67.21;100356.78;677547;29;1119;-75
2022/06/25 00:22:26;;;;;;;5.80;5.30;;;;;;;19.30;67.34;100362.91;682478;29;1321;-76
2022/06/25 00:22:47;;;;;;;6.00;5.50;;;;;;;19.27;67.39;100360.28;679439;29;1261;-76
2022/06/25 00:23:08;;;;;;;6.10;5.60;;;;;;;19.31;67.21;100354.06;679684;29;1361;-76
2022/06/25 00:23:29;;;;;;;6.40;5.90;;;;;;;19.31;67.13;100354.06;679923;29;829;-75
2022/06/25 00:23:50;;;;;;;6.20;5.70;;;;;;;19.28;66.98;100352.34;682640;28;1686;-76
2022/06/25 00:24:11;;;;;;;6.30;5.70;;;;;;;19.34;67.05;100351.38;684786;28;1325;-76
2022/06/25 00:24:32;;;;;;;6.07;5.57;;;;;;;19.29;67.14;100350.56;682366;29;1847;-76
2022/06/25 00:24:53;;;;;;;5.80;5.30;;;;;;;19.35;67.03;100361.06;678716;29;1824;-76
2022/06/25 00:25:13;;;;;;;5.40;5.00;;;;;;;19.37;66.98;100355.75;682568;29;1131;-75
2022/06/25 00:25:34;;;;;;;5.47;5.07;;;;;;;19.40;66.96;100358.34;677162;29;1735;-75
2022/06/25 00:25:55;;;;;;;5.47;5.07;;;;;;;19.36;66.83;100349.56;676301;29;1314;-75
2022/06/25 00:26:16;;;;;;;5.70;5.20;;;;;;;19.35;66.52;100350.47;677714;29;1096;-76
2022/06/25 00:26:37;;;;;;;5.75;5.25;;;;;;;19.40;66.45;100353.94;680295;29;1562;-75
2022/06/25 00:26:58;;;;;;;5.63;5.10;;;;;;;19.35;66.59;100350.47;684365;28;1286;-75
2022/06/25 00:27:19;;;;;;;6.57;5.40;;;;;;;19.44;66.54;100371.50;685237;28;1035;-76
2022/06/25 00:27:39;;;;;;;7.15;5.60;;;;;;;19.38;66.37;100365.44;679876;29;1915;-76
2022/06/25 00:28:00;;;;;;;7.35;5.80;;;;;;;19.39;66.52;100362.78;680023;29;1042;-75
2022/06/25 00:28:22;;;;;;;6.18;5.40;;;;;;;19.36;66.46;100360.16;679877;29;1223;-75
2022/06/25 00:28:43;;;;;;;6.05;5.45;;;;;;;19.33;66.38;100354.91;678807;29;1307;-76
2022/06/25 00:29:03;;;;;;;5.80;5.30;;;;;;;19.40;66.50;100360.97;679412;29;1136;-76
2022/06/25 00:29:24;;;;;;;5.70;5.20;;;;;;;19.43;66.29;100368.88;682419;29;1685;-76
2022/06/25 00:29:45;;;;;;;5.30;4.90;;;;;;;19.38;66.50;100363.69;678732;29;1050;-76
2022/06/25 00:30:07;;;;;;;5.25;4.85;;;;;;;19.41;66.34;100363.63;681733;29;1507;-76
2022/06/25 00:30:28;;;;;;;5.50;5.00;;;;;;;19.41;66.24;100366.25;679632;29;1476;-76
2022/06/25 00:30:49;;;;;;;5.70;5.20;;;;;;;19.41;66.32;100360.97;680306;29;1153;-75
2022/06/25 00:31:10;;;;;;;6.00;5.40;;;;;;;19.44;66.30;100362.69;680165;29;975;-76
2022/06/25 00:31:30;;;;;;;5.90;5.30;;;;;;;19.45;66.28;100365.34;678379;29;1583;-75
2022/06/25 00:31:51;;;;;;;5.80;5.20;;;;;;;19.51;66.17;100374.06;680912;29;1614;-76
2022/06/25 00:32:12;;;;;;;5.63;5.03;;;;;;;19.51;66.03;100376.69;681508;29;1257;-75
2022/06/25 00:32:33;;;;;;;5.65;5.10;;;;;;;19.54;65.99;100371.38;685250;28;787;-76
2022/06/25 00:32:54;;;;;;;5.40;4.90;;;;;;;19.55;65.87;100373.13;681105;29;1203;-76
2022/06/25 00:33:15;;;;;;;5.20;4.80;;;;;;;19.56;65.68;100370.44;682611;29;1960;-75
2022/06/25 00:33:36;;;;;;;5.00;4.60;;;;;;;19.56;65.69;100372.22;680381;29;1964;-75
2022/06/25 00:33:56;;;;;;;5.10;4.70;;;;;;;19.55;65.61;100365.19;679011;29;1054;-75
2022/06/25 00:34:18;;;;;;;5.25;4.75;;;;;;;19.59;65.64;100369.50;679855;29;1423;-76
2022/06/25 00:34:39;;;;;;;5.70;5.10;;;;;;;19.66;65.47;100376.44;684180;28;1479;-76
2022/06/25 00:35:01;;;;;;;5.40;4.90;;;;;;;19.66;65.35;100379.09;685170;28;1156;-76
2022/06/25 00:35:22;;;;;;;5.20;4.70;;;;;;;19.65;65.55;100373.81;684991;28;1098;-76
2022/06/25 00:35:43;;;;;;;4.72;4.32;;;;;;;19.65;65.32;100371.16;679824;29;1257;-76
2022/06/25 00:36:04;;;;;;;4.80;4.40;;;;;;;19.67;65.21;100367.59;682724;29;984;-76
2022/06/25 00:36:24;;;;;;;4.82;4.40;;;;;;;19.72;64.98;100386.06;682372;29;1182;-75
2022/06/25 00:36:45;;;;;;;5.80;4.40;;;;;;;19.69;64.95;100371.13;682421;28;1245;-75
2022/06/25 00:37:07;;;;;;;5.70;4.45;;;;;;;19.71;65.01;100369.31;682579;29;1070;-77
2022/06/25 00:37:28;;;;;;;5.88;4.60;;;;;;;19.68;64.71;100369.34;687706;28;1951;-76
2022/06/25 00:37:48;;;;;;;5.25;4.75;;;;;;;19.71;64.73;100368.44;682453;29;1175;-75
2022/06/25 00:38:09;;;;;;;5.80;4.70;;;;;;;19.77;64.47;100368.34;682729;29;998;-76
2022/06/25 00:38:30;;;;;;;5.13;4.63;;;;;;;19.75;64.43;100363.97;679245;29;1785;-76
2022/06/25 00:38:50;;;;;;;5.00;4.50;;;;;;;19.80;64.53;100372.72;681476;29;1157;-75
2022/06/25 00:39:11;;;;;;;4.80;4.40;;;;;;;19.81;64.46;100382.41;682677;29;903;-76
2022/06/25 00:39:33;;;;;;;5.57;4.57;;;;;;;19.77;64.32;100363.03;680516;29;1550;-76
2022/06/25 00:39:54;;;;;;;7.50;4.80;;;;;;;19.81;64.09;100379.75;678583;29;1857;-75
2022/06/25 00:40:14;;;;;;;6.85;4.80;;;;;;;19.75;64.27;100375.44;679835;29;1698;-75
2022/06/25 00:40:35;;;;;;;6.07;4.43;;;;;;;19.78;64.30;100377.16;682127;29;1554;-75
2022/06/25 00:40:56;;;;;;;4.65;4.22;;;;;;;19.78;64.12;100367.44;682426;29;1049;-75
2022/06/25 00:41:17;;;;;;;4.80;4.30;;;;;;;19.83;64.05;100378.84;685254;28;992;-75
2022/06/25 00:41:37;;;;;;;4.80;4.35;;;;;;;19.76;64.06;100365.72;682410;29;1986;-75
2022/06/25 00:41:58;;;;;;;4.60;4.20;;;;;;;19.82;63.82;100384.13;682549;29;1149;-76
2022/06/25 00:42:19;;;;;;;5.60;4.20;;;;;;;19.78;63.93;100371.88;685200;28;1191;-75
2022/06/25 00:42:43;;;;;;;5.50;4.30;;;;;;;19.75;64.11;100371.91;680005;29;825;-75
2022/06/25 00:43:04;;;;;;;5.45;4.40;;;;;;;19.71;64.09;100364.03;682539;29;1256;-75
2022/06/25 00:43:25;;;;;;;4.80;4.40;;;;;;;19.69;64.10;100371.13;685039;28;2017;-75
2022/06/25 00:43:46;;;;;;;4.85;4.35;;;;;;;19.73;64.07;100378.09;682742;28;1172;-76
2022/06/25 00:44:08;;;;;;;4.83;4.20;;;;;;;19.76;64.04;100381.59;679982;29;1002;-75
2022/06/25 00:44:31;;;;;;;5.72;4.45;;;;;;;19.74;64.19;100384.28;678779;29;1946;-75
2022/06/25 00:44:53;;;;;;;5.82;4.55;;;;;;;19.64;64.18;100366.78;678391;29;1200;-75
2022/06/25 00:45:14;;;;;;;5.13;4.63;;;;;;;19.69;64.20;100386.13;677183;29;1362;-76
2022/06/25 00:45:37;;;;;;;4.53;4.13;;;;;;;19.59;64.24;100370.41;679437;29;1496;-76
2022/06/25 00:45:58;;;;;;;4.60;4.20;;;;;;;19.59;64.28;100374.81;680926;29;1227;-76
2022/06/25 00:46:19;;;;;;;4.70;4.30;;;;;;;19.59;64.54;100374.81;679954;29;1888;-75
2022/06/25 00:46:40;;;;;;;5.10;4.60;;;;;;;19.55;64.45;100362.53;679686;29;1693;-75
2022/06/25 00:47:01;;;;;;;5.80;4.77;;;;;;;19.59;64.35;100378.34;679809;29;1282;-76
2022/06/25 00:47:22;;;;;;;6.35;4.50;;;;;;;19.58;64.35;100373.06;682621;29;1250;-75
2022/06/25 00:47:43;;;;;;;6.25;4.60;;;;;;;19.61;64.45;100383.59;682216;29;1172;-76
2022/06/25 00:48:04;;;;;;;5.28;4.40;;;;;;;19.58;64.35;100381.00;680157;29;995;-76
2022/06/25 00:48:25;;;;;;;5.40;4.50;;;;;;;19.59;64.38;100380.09;680689;29;1126;-76
2022/06/25 00:48:45;;;;;;;4.90;4.40;;;;;;;19.57;64.36;100366.03;682639;28;1134;-76
2022/06/25 00:49:06;;;;;;;4.90;4.40;;;;;;;19.57;64.34;100377.50;677235;29;1027;-75
2022/06/25 00:49:28;;;;;;;4.70;4.30;;;;;;;19.59;64.32;100377.44;680205;29;1955;-76
2022/06/25 00:49:49;;;;;;;4.65;4.25;;;;;;;19.60;64.30;100376.53;681134;28;1089;-76
2022/06/25 00:50:10;;;;;;;4.80;4.40;;;;;;;19.63;64.36;100380.91;682395;28;1008;-75
2022/06/25 00:50:33;;;;;;;4.90;4.50;;;;;;;19.58;64.65;100378.34;682426;29;1730;-75
2022/06/25 00:50:57;;;;;;;5.10;4.60;;;;;;;19.54;64.51;100374.03;684857;28;1508;-75
2022/06/25 00:51:22;;;;;;;5.10;4.60;;;;;;;19.59;64.34;100380.97;683980;28;1001;-75
2022/06/25 00:51:47;;;;;;;4.88;4.45;;;;;;;19.53;64.53;100375.78;683932;28;1235;-75
2022/06/25 00:52:15;;;;;;;4.80;4.40;;;;;;;19.54;64.48;100374.03;679873;29;975;-76
2022/06/25 00:52:42;;;;;;;4.78;4.32;;;;;;;19.50;64.36;100378.47;677499;29;1886;-75
2022/06/25 00:53:04;;;;;;;5.50;4.50;;;;;;;19.52;64.45;100374.03;682338;29;1247;-75
2022/06/25 00:53:32;;;;;;;6.43;4.43;;;;;;;19.49;64.50;100367.91;685152;28;1941;-74
2022/06/25 00:53:59;;;;;;;6.10;4.40;;;;;;;19.49;64.41;100367.91;686814;28;1028;-76
2022/06/25 00:54:20;;;;;;;5.30;4.43;;;;;;;19.50;64.61;100377.59;682473;29;1119;-75
2022/06/25 00:55:04;;;;;;;4.80;4.40;;;;;;;19.53;64.58;100386.38;686481;28;1528;-76
2022/06/25 00:55:30;;;;;;;4.97;4.20;;;;;;;19.45;64.87;100378.56;682202;29;1677;-75
2022/06/25 00:55:52;;;;;;;4.82;4.20;;;;;;;19.40;64.93;100371.56;680478;29;1086;-76
2022/06/25 00:56:14;;;;;;;4.90;4.35;;;;;;;19.39;64.88;100370.72;679932;29;1141;-75
2022/06/25 00:56:43;;;;;;;5.25;4.80;;;;;;;19.42;64.82;100381.22;676725;29;1538;-75
2022/06/25 00:57:06;;;;;;;5.13;4.72;;;;;;;19.39;64.89;100378.66;682539;29;1913;-75
2022/06/25 00:57:28;;;;;;;4.80;4.40;;;;;;;19.41;65.07;100383.88;685094;28;1605;-75
2022/06/25 00:57:51;;;;;;;5.28;4.78;;;;;;;19.42;64.84;100383.88;685151;28;1084;-75
2022/06/25 00:58:15;;;;;;;5.20;4.70;;;;;;;19.42;64.94;100377.72;682640;29;1040;-76
2022/06/25 00:58:39;;;;;;;5.20;4.70;;;;;;;19.37;64.84;100377.78;682304;28;1192;-75
2022/06/25 00:59:04;;;;;;;5.07;4.57;;;;;;;19.43;64.93;100390.06;682384;29;1259;-76
2022/06/25 00:59:27;;;;;;;4.90;4.50;;;;;;;19.39;64.81;100389.22;684938;28;1397;-75
2022/06/25 00:59:50;;;;;;;5.60;4.65;;;;;;;19.35;64.96;100381.38;678907;29;1618;-75
2022/06/25 01:00:17;;;;;;;6.20;4.68;;;;;;;19.35;65.05;100378.72;682243;29;2127;-75
2022/06/25 01:00:39;;;;;;;5.20;4.70;;;;;;;19.34;64.99;100384.88;682233;29;1662;-76
2022/06/25 01:01:00;;;;;;;5.45;4.50;;;;;;;19.30;65.06;100379.66;682270;29;1088;-75
2022/06/25 01:01:21;;;;;;;6.90;4.80;;;;;;;19.30;65.03;100382.28;684513;28;1283;-75
2022/06/25 01:01:42;;;;;;;8.25;5.00;;;;;;;19.38;65.24;100391.88;687550;28;1458;-75
2022/06/25 01:02:03;;;;;;;7.68;5.13;;;;;;;19.28;65.11;100380.56;684611;28;1075;-76
2022/06/25 01:02:24;;;;;;;6.38;4.93;;;;;;;19.31;65.23;100385.81;682452;29;1393;-75
2022/06/25 01:02:45;;;;;;;5.43;4.80;;;;;;;19.27;65.28;100386.75;679655;28;1206;-75
2022/06/25 01:03:06;;;;;;;5.80;4.88;;;;;;;19.27;65.41;100385.00;682603;29;1072;-76
2022/06/25 01:03:27;;;;;;;6.30;4.75;;;;;;;19.29;65.36;100384.94;681732;29;1530;-76
2022/06/25 01:03:48;;;;;;;5.57;4.65;;;;;;;19.28;65.39;100391.13;683183;28;1665;-76
2022/06/25 01:04:09;;;;;;;8.10;4.78;;;;;;;19.22;65.39;100378.88;682526;28;972;-76
2022/06/25 01:04:30;;;;;;;7.85;5.00;;;;;;;19.20;65.48;100377.16;679005;29;1823;-76
2022/06/25 01:04:51;;;;;;;8.00;5.00;;;;;;;19.24;65.46;100390.31;680613;29;1034;-76
2022/06/25 01:05:14;;;;;;;5.20;4.70;;;;;;;19.21;65.29;100386.84;680016;29;940;-76
2022/06/25 01:05:34;;;;;;;4.60;4.30;;;;;;;19.20;65.51;100390.38;678384;29;1766;-75
2022/06/25 01:05:55;;;;;;;4.90;4.50;;;;;;;19.14;65.59;100379.00;679782;29;1021;-75
2022/06/25 01:06:16;;;;;;;6.35;4.60;;;;;;;19.18;65.56;100388.63;676725;29;1105;-75
2022/06/25 01:06:37;;;;;;;7.03;5.00;;;;;;;19.13;65.54;100382.53;679559;29;1539;-76
2022/06/25 01:06:58;;;;;;;6.33;4.80;;;;;;;19.13;65.65;100382.53;679642;29;1546;-75
2022/06/25 01:07:19;;;;;;;6.70;4.90;;;;;;;19.20;65.73;100395.66;682312;29;1148;-76
2022/06/25 01:07:44;;;;;;;6.70;4.78;;;;;;;19.18;65.76;100401.00;682073;29;2084;-76
2022/06/25 01:08:06;;;;;;;5.18;4.50;;;;;;;19.09;65.58;100386.13;679996;29;1014;-76
2022/06/25 01:08:27;;;;;;;6.32;4.43;;;;;;;19.12;65.78;100388.72;682847;28;1637;-75
2022/06/25 01:08:48;;;;;;;7.80;4.70;;;;;;;19.07;65.71;100377.34;682998;28;1124;-75
2022/06/25 01:09:08;;;;;;;7.68;4.72;;;;;;;19.09;65.55;100388.75;685185;28;1126;-76
2022/06/25 01:09:29;;;;;;;6.30;4.80;;;;;;;19.09;65.70;100385.22;684706;28;1804;-75
2022/06/25 01:09:51;;;;;;;6.20;4.93;;;;;;;19.09;65.95;100388.75;683935;28;1091;-75
2022/06/25 01:10:13;;;;;;;5.70;5.05;;;;;;;19.08;65.78;100383.50;679734;29;1273;-76
2022/06/25 01:10:34;;;;;;;5.55;5.05;;;;;;;19.06;65.89;100386.19;681713;29;1590;-76
2022/06/25 01:10:55;;;;;;;5.30;4.80;;;;;;;19.08;66.04;100392.31;682230;29;1031;-75
2022/06/25 01:11:15;;;;;;;5.28;4.70;;;;;;;19.07;66.09;100390.56;679904;29;1123;-75
2022/06/25 01:11:36;;;;;;;5.65;4.70;;;;;;;19.02;65.90;100380.03;677659;29;1674;-76
2022/06/25 01:11:57;;;;;;;5.55;5.00;;;;;;;19.05;66.09;100392.31;684717;28;1255;-75
2022/06/25 01:12:18;;;;;;;5.67;5.10;;;;;;;19.03;66.00;100396.78;687926;28;1132;-76
2022/06/25 01:12:39;;;;;;;5.45;4.95;;;;;;;19.04;66.24;100388.84;684888;28;1403;-75
2022/06/25 01:13:01;;;;;;;5.47;4.97;;;;;;;19.01;66.10;100385.31;687320;28;1313;-75
2022/06/25 01:13:22;;;;;;;5.30;4.80;;;;;;;19.00;66.08;100383.56;684904;28;1910;-76
2022/06/25 01:13:43;;;;;;;5.57;4.90;;;;;;;19.01;66.15;100383.53;679464;29;1821;-75
2022/06/25 01:14:10;;;;;;;5.38;4.63;;;;;;;19.02;66.07;100395.88;682598;29;1002;-75
2022/06/25 01:14:31;;;;;;;5.65;4.70;;;;;;;18.98;66.26;100385.34;680605;28;1580;-75
2022/06/25 01:15:09;;;;;;;5.55;4.70;;;;;;;18.97;66.14;100392.41;684968;28;1156;-75
2022/06/25 01:15:32;;;;;;;5.30;4.80;;;;;;;18.97;66.04;100397.69;685879;28;1454;-76
2022/06/25 01:15:53;;;;;;;5.20;4.80;;;;;;;19.01;66.15;100398.53;684976;28;1030;-75
2022/06/25 01:16:15;;;;;;;5.68;4.90;;;;;;;19.01;66.28;100398.53;679688;29;955;-76
2022/06/25 01:16:36;;;;;;;6.18;5.10;;;;;;;18.98;66.32;100387.97;679598;29;1833;-75
2022/06/25 01:16:58;;;;;;;5.88;5.05;;;;;;;19.00;66.36;100396.78;682443;29;1133;-75
2022/06/25 01:17:18;;;;;;;5.63;5.13;;;;;;;18.98;66.11;100401.19;679898;29;1114;-75
2022/06/25 01:17:43;;;;;;;5.85;5.35;;;;;;;18.95;66.34;100393.31;682042;29;1667;-76
2022/06/25 01:18:04;;;;;;;6.13;5.50;;;;;;;18.95;66.35;100396.84;680876;29;1563;-75
2022/06/25 01:18:25;;;;;;;5.82;5.22;;;;;;;18.96;66.26;100400.34;682509;29;889;-75
2022/06/25 01:18:47;;;;;;;5.68;5.18;;;;;;;18.97;66.51;100402.09;684903;28;1121;-75
2022/06/25 01:19:11;;;;;;;5.50;5.00;;;;;;;18.98;66.47;100403.84;685153;28;1026;-75
2022/06/25 01:19:33;;;;;;;5.55;5.05;;;;;;;18.91;66.39;100392.50;681424;29;2006;-75
2022/06/25 01:19:54;;;;;;;5.72;4.90;;;;;;;18.97;66.43;100407.38;679505;29;1369;-75
2022/06/25 01:20:17;;;;;;;6.85;5.15;;;;;;;18.96;66.40;100400.34;681952;29;1162;-75
2022/06/25 01:20:38;;;;;;;7.13;5.20;;;;;;;18.91;66.43;100401.31;684722;28;1208;-75
2022/06/25 01:21:00;;;;;;;7.57;5.20;;;;;;;18.88;66.47;100396.03;679847;29;1470;-76
2022/06/25 01:21:20;;;;;;;5.90;4.80;;;;;;;18.95;66.60;100406.53;679618;29;1690;-75
2022/06/25 01:21:42;;;;;;;8.38;5.07;;;;;;;18.91;66.49;100400.41;682326;29;1042;-75
2022/06/25 01:22:04;;;;;;;8.68;5.30;;;;;;;18.95;66.56;100403.91;682387;28;1109;-75
2022/06/25 01:22:26;;;;;;;6.82;5.30;;;;;;;18.94;66.61;100404.81;682217;29;1764;-75
2022/06/25 01:22:48;;;;;;;7.35;5.15;;;;;;;18.99;66.47;100421.50;684915;28;1775;-75
2022/06/25 01:23:10;;;;;;;5.70;4.90;;;;;;;18.94;66.58;100400.41;679929;29;1987;-76
2022/06/25 01:23:31;;;;;;;6.85;5.00;;;;;;;18.90;66.50;100402.22;683092;28;1921;-75
2022/06/25 01:23:52;;;;;;;9.68;5.35;;;;;;;18.90;66.33;100402.22;679628;29;1146;-76
2022/06/25 01:24:13;;;;;;;10.80;5.20;;;;;;;18.97;66.39;100410.03;679829;29;1229;-75
2022/06/25 01:24:34;;;;;;;9.60;5.10;;;;;;;18.98;66.46;100409.13;679670;29;1868;-75
2022/06/25 01:24:55;;;;;;;5.65;4.75;;;;;;;18.96;66.37;100414.47;683274;28;1112;-76
2022/06/25 01:25:16;;;;;;;5.30;4.80;;;;;;;18.96;66.38;100416.22;682541;29;1193;-76
2022/06/25 01:25:39;;;;;;;5.63;4.97;;;;;;;18.89;66.32;100410.16;679383;29;1523;-76
2022/06/25 01:26:00;;;;;;;5.30;4.80;;;;;;;18.89;66.48;100411.00;677622;29;1210;-75
2022/06/25 01:26:21;;;;;;;5.13;4.67;;;;;;;18.89;66.47;100411.00;677183;29;1182;-75
2022/06/25 01:26:42;;;;;;;4.88;4.40;;;;;;;18.89;66.40;100408.34;676975;29;1079;-75
2022/06/25 01:27:13;;;;;;;5.32;4.63;;;;;;;18.88;66.47;100403.97;677209;29;1099;-76
2022/06/25 01:27:33;;;;;;;7.25;4.90;;;;;;;18.92;66.44;100412.75;684843;28;1905;-75
2022/06/25 01:27:54;;;;;;;6.65;4.70;;;;;;;18.87;66.33;100404.88;686391;28;1155;-76
2022/06/25 01:28:15;;;;;;;7.35;4.90;;;;;;;18.88;66.35;100403.97;690521;28;1325;-76
2022/06/25 01:28:36;;;;;;;6.20;4.90;;;;;;;18.90;66.32;100412.78;684099;28;1406;-75
2022/06/25 01:28:57;;;;;;;5.88;4.72;;;;;;;18.89;66.25;100405.72;686307;28;1002;-75
2022/06/25 01:29:18;;;;;;;5.07;4.68;;;;;;;18.88;66.44;100409.25;682450;29;950;-76
2022/06/25 01:29:39;;;;;;;4.70;4.30;;;;;;;18.89;66.41;100407.50;679122;29;2023;-75
2022/06/25 01:30:00;;;;;;;4.80;4.40;;;;;;;18.90;66.39;100411.88;683839;28;1085;-75
2022/06/25 01:30:20;;;;;;;5.60;4.40;;;;;;;18.88;66.40;100409.25;682114;28;1012;-75
2022/06/25 01:30:41;;;;;;;5.75;4.72;;;;;;;18.88;66.42;100409.25;682704;28;2024;-76
2022/06/25 01:31:02;;;;;;;6.10;4.90;;;;;;;18.88;66.53;100411.91;684943;28;1176;-75
2022/06/25 01:31:25;;;;;;;6.68;5.03;;;;;;;18.94;66.39;100426.84;682424;29;1209;-75
2022/06/25 01:31:46;;;;;;;7.55;5.25;;;;;;;18.85;66.41;100400.50;682340;29;1112;-75
2022/06/25 01:32:07;;;;;;;7.13;5.63;;;;;;;18.86;66.50;100413.69;684501;28;977;-76
2022/06/25 01:32:28;;;;;;;6.30;5.70;;;;;;;18.86;66.50;100411.06;682585;29;824;-75
2022/06/25 01:32:49;;;;;;;5.93;5.43;;;;;;;18.82;66.56;100405.81;682343;29;1100;-75
2022/06/25 01:33:11;;;;;;;5.32;4.82;;;;;;;18.82;66.47;100398.78;682513;29;927;-76
2022/06/25 01:33:31;;;;;;;5.27;4.87;;;;;;;18.87;66.54;100415.44;682640;28;1975;-75
2022/06/25 01:33:52;;;;;;;5.28;4.82;;;;;;;18.85;66.53;100414.59;682644;28;1087;-75
2022/06/25 01:34:13;;;;;;;5.47;5.03;;;;;;;18.79;66.42;100396.16;677345;29;1242;-75
2022/06/25 01:34:34;;;;;;;5.80;5.10;;;;;;;18.87;66.59;100415.44;678628;29;923;-76
2022/06/25 01:34:56;;;;;;;5.57;4.97;;;;;;;18.87;66.53;100415.44;682784;28;1227;-75
2022/06/25 01:35:17;;;;;;;5.53;4.80;;;;;;;18.82;66.42;100403.19;681434;29;1129;-75
2022/06/25 01:35:38;;;;;;;5.10;4.70;;;;;;;18.85;66.51;100414.59;679660;29;1160;-75
2022/06/25 01:35:58;;;;;;;5.45;4.95;;;;;;;18.80;66.35;100405.84;683942;28;1200;-75
2022/06/25 01:36:21;;;;;;;5.70;5.10;;;;;;;18.79;66.49;100404.09;681980;29;1263;-76
2022/06/25 01:36:42;;;;;;;5.72;5.13;;;;;;;18.78;66.53;100407.63;679867;29;1738;-75
2022/06/25 01:37:03;;;;;;;5.78;5.28;;;;;;;18.77;66.63;100405.88;684830;28;1181;-76
2022/06/25 01:37:24;;;;;;;5.82;5.32;;;;;;;18.76;66.52;100404.13;685194;28;796;-75
2022/06/25 01:37:47;;;;;;;6.15;5.55;;;;;;;18.76;66.53;100405.00;679668;29;1913;-75
2022/06/25 01:38:08;;;;;;;6.10;5.50;;;;;;;18.74;66.74;100398.84;679990;29;1082;-75
2022/06/25 01:38:28;;;;;;;6.15;5.15;;;;;;;18.75;66.55;100402.38;684928;28;1486;-75
2022/06/25 01:38:49;;;;;;;5.50;5.00;;;;;;;18.80;66.43;100411.13;684871;28;1157;-75
2022/06/25 01:39:10;;;;;;;5.68;5.07;;;;;;;18.76;66.53;100410.28;685017;28;1311;-75
2022/06/25 01:39:31;;;;;;;6.07;5.28;;;;;;;18.79;66.68;100404.09;684682;28;1142;-75
2022/06/25 01:39:56;;;;;;;7.55;5.60;;;;;;;18.83;66.76;100416.38;682205;28;1105;-76
2022/06/25 01:40:18;;;;;;;7.00;5.25;;;;;;;18.80;66.66;100419.06;676778;29;1215;-76
2022/06/25 01:40:39;;;;;;;6.65;5.10;;;;;;;18.76;66.56;100409.44;682545;29;796;-76
2022/06/25 01:41:00;;;;;;;7.15;5.00;;;;;;;18.80;66.71;100426.97;681906;29;1078;-75
2022/06/25 01:41:20;;;;;;;7.65;5.10;;;;;;;18.77;66.67;100405.88;687858;28;1217;-76
2022/06/25 01:41:41;;;;;;;6.20;4.90;;;;;;;18.80;66.76;100418.19;685155;28;1184;-76
2022/06/25 01:42:03;;;;;;;6.32;4.82;;;;;;;18.81;66.63;100412.88;684984;28;1163;-75
2022/06/25 01:43:04;;;;;;;5.25;4.75;;;;;;;18.79;66.52;100419.94;684976;28;1282;-75
2022/06/25 01:43:26;;;;;;;5.97;5.05;;;;;;;18.83;66.64;100424.31;682417;29;1487;-75
2022/06/25 01:43:47;;;;;;;5.72;5.10;;;;;;;18.79;66.77;100414.66;681765;29;1272;-75
2022/06/25 01:44:07;;;;;;;6.00;5.10;;;;;;;18.73;66.68;100414.72;676814;29;1623;-75
2022/06/25 01:44:29;;;;;;;5.40;4.90;;;;;;;18.83;66.45;100432.25;679663;29;2015;-76
2022/06/25 01:44:49;;;;;;;5.15;4.70;;;;;;;18.80;66.50;100426.97;684933;28;1393;-75
2022/06/25 01:45:11;;;;;;;5.13;4.72;;;;;;;18.81;66.57;100412.00;682318;29;1158;-75
2022/06/25 01:45:34;;;;;;;5.20;4.80;;;;;;;18.87;66.43;100420.72;679851;29;800;-75
2022/06/25 01:45:56;;;;;;;5.55;5.05;;;;;;;18.83;66.46;100413.75;679462;29;1253;-75
2022/06/25 01:46:17;;;;;;;5.63;5.13;;;;;;;18.86;66.65;100418.97;679815;29;1076;-75
2022/06/25 01:46:38;;;;;;;5.88;5.13;;;;;;;18.80;66.33;100413.75;680556;28;1555;-75